Time;durP1;ratioP1;P1;durP2;ratioP2;P2;SDS_P1;SDS_P2;PMS_P1;PMS_P2;Temp;Humidity;BMP_temperature;BMP_pressure;BME280_temperature;BME280_humidity;BME280_pressure;Samples;Min_cycle;Max_cycle;Signal;HPM_P1;HPM_P2
2023/04/14 00:00:00;;;;;;;1.13;0.50;;;;;;;;;;20828664;28;20075;-63
2023/04/14 00:10:02;;;;;;;2.58;0.32;;;;;;;;;;20829317;28;20053;-63
2023/04/14 00:20:03;;;;;;;4.05;0.45;;;;;;;;;;20840025;28;20050;-64
2023/04/14 00:30:05;;;;;;;1.35;0.40;;;;;;;;;;20841853;28;20098;-63
2023/04/14 00:40:10;;;;;;;0.85;0.47;;;;;;;;;;20842465;28;20049;-63
2023/04/14 00:50:15;;;;;;;1.33;0.40;;;;;;;;;;20841496;28;20049;-63
2023/04/14 01:00:17;;;;;;;1.52;0.40;;;;;;;;;;20840731;28;20049;-62
2023/04/14 01:10:18;;;;;;;0.70;0.30;;;;;;;;;;20839906;28;20486;-63
2023/04/14 01:20:38;;;;;;;1.45;0.30;;;;;;;;;;20837738;28;20053;-63
2023/04/14 01:30:58;;;;;;;2.28;0.40;;;;;;;;;;20836168;28;20049;-63
2023/04/14 01:41:05;;;;;;;1.45;0.50;;;;;;;;;;20836456;28;20055;-62
2023/04/14 01:51:07;;;;;;;1.92;0.30;;;;;;;;;;20836704;28;20076;-63
2023/04/14 02:01:09;;;;;;;1.25;0.20;;;;;;;;;;20834889;28;20053;-63
2023/04/14 02:11:13;;;;;;;1.92;0.60;;;;;;;;;;20835288;28;20049;-63
2023/04/14 02:21:15;;;;;;;0.95;0.30;;;;;;;;;;20833594;28;20058;-63
2023/04/14 02:31:23;;;;;;;1.60;0.40;;;;;;;;;;20833768;28;20046;-62
2023/04/14 02:41:26;;;;;;;1.73;0.40;;;;;;;;;;20833141;28;20053;-63
2023/04/14 02:51:28;;;;;;;1.58;0.40;;;;;;;;;;20832554;28;20223;-62
2023/04/14 03:01:31;;;;;;;0.47;0.30;;;;;;;;;;20832124;28;20057;-63
2023/04/14 03:11:34;;;;;;;1.77;0.40;;;;;;;;;;20831712;28;20042;-64
2023/04/14 03:21:37;;;;;;;1.42;0.40;;;;;;;;;;20830520;28;20100;-63
2023/04/14 03:31:39;;;;;;;2.08;0.40;;;;;;;;;;20829501;28;20049;-63
2023/04/14 03:41:46;;;;;;;0.93;0.30;;;;;;;;;;20830356;28;20095;-63
2023/04/14 03:51:51;;;;;;;1.30;0.45;;;;;;;;;;20838246;28;20045;-63
2023/04/14 04:01:53;;;;;;;0.93;0.40;;;;;;;;;;20843944;28;20049;-63
2023/04/14 04:11:58;;;;;;;1.15;0.43;;;;;;;;;;20844617;28;20049;-63
2023/04/14 04:22:01;;;;;;;1.05;0.47;;;;;;;;;;20842265;28;20064;-63
2023/04/14 04:32:03;;;;;;;2.80;0.52;;;;;;;;;;20842935;28;20106;-63
2023/04/14 04:42:05;;;;;;;1.77;0.68;;;;;;;;;;20842320;28;20045;-63
2023/04/14 04:52:07;;;;;;;1.83;0.40;;;;;;;;;;20840142;28;20056;-64
2023/04/14 05:02:09;;;;;;;2.05;0.40;;;;;;;;;;20839438;28;20049;-62
2023/04/14 05:12:11;;;;;;;1.00;0.45;;;;;;;;;;20839733;28;20045;-63
2023/04/14 05:22:12;;;;;;;2.97;0.50;;;;;;;;;;20839823;28;20053;-63
2023/04/14 05:32:14;;;;;;;2.78;0.50;;;;;;;;;;20837881;28;20053;-63
2023/04/14 05:42:16;;;;;;;2.75;0.80;;;;;;;;;;20836982;28;20049;-63
2023/04/14 05:52:17;;;;;;;2.65;0.98;;;;;;;;;;20836446;28;20049;-63
2023/04/14 06:02:19;;;;;;;3.92;0.68;;;;;;;;;;20834379;28;20046;-64
2023/04/14 06:12:21;;;;;;;2.22;0.80;;;;;;;;;;20834192;28;20387;-63
2023/04/14 06:22:27;;;;;;;1.90;0.80;;;;;;;;;;20832626;28;20058;-63
2023/04/14 06:32:29;;;;;;;2.88;0.80;;;;;;;;;;20831807;28;20049;-64
2023/04/14 06:42:31;;;;;;;3.80;0.77;;;;;;;;;;20831936;28;20049;-63
2023/04/14 06:52:32;;;;;;;4.72;2.53;;;;;;;;;;20831219;28;20045;-63
2023/04/14 07:02:34;;;;;;;1.30;0.43;;;;;;;;;;20830324;28;20055;-62
2023/04/14 07:12:35;;;;;;;2.80;0.88;;;;;;;;;;20829051;28;20053;-62
2023/04/14 07:22:38;;;;;;;22.13;2.47;;;;;;;;;;20830614;28;20064;-63
2023/04/14 07:32:40;;;;;;;1.77;0.60;;;;;;;;;;20847164;28;20053;-63
2023/04/14 07:42:41;;;;;;;2.00;0.73;;;;;;;;;;20846221;28;20052;-63
2023/04/14 07:52:43;;;;;;;2.80;0.50;;;;;;;;;;20844348;28;20049;-63
2023/04/14 08:02:45;;;;;;;2.42;0.70;;;;;;;;;;20843649;28;20046;-63
2023/04/14 08:12:46;;;;;;;1.25;0.63;;;;;;;;;;20843052;28;20449;-63
2023/04/14 08:22:48;;;;;;;1.27;0.50;;;;;;;;;;20837797;28;20057;-63
2023/04/14 08:32:50;;;;;;;1.75;0.68;;;;;;;;;;20835467;28;20045;-64
2023/04/14 08:42:51;;;;;;;3.10;0.70;;;;;;;;;;20836725;28;20041;-64
2023/04/14 08:52:55;;;;;;;0.95;0.22;;;;;;;;;;20835152;28;20050;-63
2023/04/14 09:02:57;;;;;;;1.08;0.30;;;;;;;;;;20834950;28;20060;-63
2023/04/14 09:13:00;;;;;;;2.25;0.60;;;;;;;;;;20834746;28;20053;-63
2023/04/14 09:23:02;;;;;;;2.30;0.63;;;;;;;;;;20796599;28;1175271;-63
2023/04/14 09:33:05;;;;;;;2.78;0.57;;;;;;;;;;20838538;28;20053;-63
2023/04/14 09:43:07;;;;;;;3.38;0.70;;;;;;;;;;20835181;28;20079;-63
2023/04/14 09:53:08;;;;;;;4.47;1.38;;;;;;;;;;20834863;28;20049;-63
2023/04/14 10:03:10;;;;;;;2.00;0.45;;;;;;;;;;20834932;28;20142;-64
2023/04/14 10:13:13;;;;;;;0.25;0.20;;;;;;;;;;20832869;28;20048;-65
2023/04/14 10:23:15;;;;;;;3.60;0.70;;;;;;;;;;20828964;28;20132;-66
2023/04/14 10:33:17;;;;;;;2.88;0.88;;;;;;;;;;20831028;28;20136;-65
2023/04/14 10:43:18;;;;;;;1.83;0.98;;;;;;;;;;20832578;28;20546;-66
2023/04/14 10:53:20;;;;;;;1.40;0.38;;;;;;;;;;20830869;28;20132;-66
2023/04/14 11:03:22;;;;;;;2.35;1.17;;;;;;;;;;20831471;28;20542;-66
2023/04/14 11:13:24;;;;;;;3.90;1.23;;;;;;;;;;20830815;28;20135;-66
2023/04/14 11:23:28;;;;;;;2.83;0.20;;;;;;;;;;20829353;28;20140;-65
2023/04/14 11:33:34;;;;;;;2.53;1.23;;;;;;;;;;20830617;28;20501;-65
2023/04/14 11:43:45;;;;;;;2.30;0.63;;;;;;;;;;20830293;28;20045;-65
2023/04/14 11:53:46;;;;;;;1.60;0.47;;;;;;;;;;20830178;28;20605;-65
2023/04/14 12:03:48;;;;;;;1.52;0.30;;;;;;;;;;20828370;28;20049;-65
2023/04/14 12:13:51;;;;;;;1.58;0.30;;;;;;;;;;20838260;28;20063;-65
2023/04/14 12:23:54;;;;;;;1.77;0.20;;;;;;;;;;20842100;28;20502;-65
2023/04/14 12:34:02;;;;;;;1.17;0.40;;;;;;;;;;20841567;28;20236;-65
2023/04/14 12:44:13;;;;;;;3.37;0.30;;;;;;;;;;20840137;28;20136;-64
2023/04/14 12:54:14;;;;;;;1.83;0.40;;;;;;;;;;20839389;28;20148;-64
2023/04/14 13:04:16;;;;;;;3.13;1.00;;;;;;;;;;20839273;28;20140;-65
2023/04/14 13:14:17;;;;;;;2.17;0.47;;;;;;;;;;20839455;28;20555;-65
2023/04/14 13:24:19;;;;;;;1.83;0.50;;;;;;;;;;20836693;28;20063;-65
2023/04/14 13:34:21;;;;;;;4.32;0.63;;;;;;;;;;20837991;28;20571;-64
2023/04/14 13:44:22;;;;;;;1.58;0.25;;;;;;;;;;20837333;28;20170;-65
2023/04/14 13:54:25;;;;;;;6.00;2.88;;;;;;;;;;20836214;28;20507;-65
2023/04/14 14:04:26;;;;;;;2.83;1.33;;;;;;;;;;20833904;28;20140;-65
2023/04/14 14:14:27;;;;;;;2.38;0.70;;;;;;;;;;20834484;28;20179;-65
2023/04/14 14:24:29;;;;;;;1.52;0.43;;;;;;;;;;20832963;28;20091;-66
2023/04/14 14:34:31;;;;;;;2.05;0.38;;;;;;;;;;20832083;28;20089;-65
2023/04/14 14:44:32;;;;;;;4.07;0.47;;;;;;;;;;20832999;28;20542;-66
2023/04/14 14:54:35;;;;;;;1.52;0.20;;;;;;;;;;20832073;28;20555;-65
2023/04/14 15:04:37;;;;;;;1.45;0.40;;;;;;;;;;20831754;28;20132;-66
2023/04/14 15:14:39;;;;;;;3.03;1.48;;;;;;;;;;20831584;28;20132;-66
2023/04/14 15:24:40;;;;;;;1.25;0.40;;;;;;;;;;20829872;28;20547;-65
2023/04/14 15:34:42;;;;;;;2.60;0.38;;;;;;;;;;20829154;28;20140;-68
2023/04/14 15:44:43;;;;;;;3.70;0.50;;;;;;;;;;20831535;28;20128;-69
2023/04/14 15:54:45;;;;;;;2.03;0.30;;;;;;;;;;20843054;28;20049;-68
2023/04/14 16:04:46;;;;;;;8.52;1.27;;;;;;;;;;20843824;28;20132;-70
2023/04/14 16:14:50;;;;;;;6.45;0.60;;;;;;;;;;20841252;28;20056;-69
2023/04/14 16:24:52;;;;;;;6.22;0.47;;;;;;;;;;20840537;28;20137;-66
2023/04/14 16:34:53;;;;;;;2.35;0.30;;;;;;;;;;20841822;28;20129;-70
2023/04/14 16:44:55;;;;;;;1.00;0.30;;;;;;;;;;20815942;28;20472;-64
2023/04/14 16:54:57;;;;;;;3.13;0.52;;;;;;;;;;20838083;28;20073;-65
2023/04/14 17:05:00;;;;;;;3.50;0.35;;;;;;;;;;20837103;28;20139;-64
2023/04/14 17:15:03;;;;;;;4.80;0.82;;;;;;;;;;20834873;28;20106;-68
2023/04/14 17:25:05;;;;;;;5.65;0.98;;;;;;;;;;20829203;28;20128;-67
2023/04/14 17:35:07;;;;;;;2.55;0.85;;;;;;;;;;20821700;28;20552;-67
2023/04/14 17:45:09;;;;;;;3.70;0.60;;;;;;;;;;20834833;28;20083;-72
2023/04/14 17:55:10;;;;;;;5.35;1.13;;;;;;;;;;20829117;28;20156;-67
2023/04/14 18:05:12;;;;;;;5.55;0.88;;;;;;;;;;20835696;28;20073;-71
2023/04/14 18:15:14;;;;;;;2.90;0.40;;;;;;;;;;20831874;28;20077;-74
2023/04/14 18:25:16;;;;;;;5.63;1.50;;;;;;;;;;20827316;28;20064;-69
2023/04/14 18:35:17;;;;;;;1.88;0.70;;;;;;;;;;20830376;28;20051;-66
2023/04/14 18:45:19;;;;;;;3.28;0.60;;;;;;;;;;20831268;28;20057;-65
2023/04/14 18:55:20;;;;;;;1.77;1.02;;;;;;;;;;20830983;28;20190;-63
2023/04/14 19:05:24;;;;;;;4.25;1.02;;;;;;;;;;20830556;28;20056;-63
2023/04/14 19:15:26;;;;;;;5.72;1.55;;;;;;;;;;20829280;28;20141;-64
2023/04/14 19:25:29;;;;;;;7.40;3.53;;;;;;;;;;20844767;28;20076;-63
2023/04/14 19:35:30;;;;;;;4.53;1.50;;;;;;;;;;20845896;28;20188;-63
2023/04/14 19:45:32;;;;;;;3.53;0.70;;;;;;;;;;20845643;28;20140;-63
2023/04/14 19:55:33;;;;;;;5.57;0.60;;;;;;;;;;20845885;28;20084;-63
2023/04/14 20:05:35;;;;;;;4.25;0.60;;;;;;;;;;20844184;28;20483;-64
2023/04/14 20:15:37;;;;;;;2.90;1.23;;;;;;;;;;20841709;28;20099;-63
2023/04/14 20:25:38;;;;;;;2.85;0.90;;;;;;;;;;20841033;28;20141;-64
2023/04/14 20:35:42;;;;;;;2.20;0.60;;;;;;;;;;20841674;28;20051;-63
2023/04/14 20:45:43;;;;;;;4.43;1.50;;;;;;;;;;20841151;28;20132;-63
2023/04/14 20:55:45;;;;;;;8.45;4.03;;;;;;;;;;20841520;28;20144;-66
2023/04/14 21:05:46;;;;;;;10.48;3.20;;;;;;;;;;20838069;28;20133;-64
2023/04/14 21:15:48;;;;;;;8.38;2.90;;;;;;;;;;20836864;28;20148;-63
2023/04/14 21:25:51;;;;;;;4.15;1.15;;;;;;;;;;20837119;28;20056;-63
2023/04/14 21:35:56;;;;;;;5.05;1.55;;;;;;;;;;20838436;28;20063;-64
2023/04/14 21:45:58;;;;;;;7.88;2.67;;;;;;;;;;20835247;28;20045;-65
2023/04/14 21:56:00;;;;;;;2.72;1.48;;;;;;;;;;20835150;28;20160;-63
2023/04/14 22:06:01;;;;;;;5.60;2.28;;;;;;;;;;20835713;28;20153;-63
2023/04/14 22:16:04;;;;;;;5.78;2.40;;;;;;;;;;20833469;28;20049;-63
2023/04/14 22:26:05;;;;;;;2.63;0.88;;;;;;;;;;20833148;28;20140;-63
2023/04/14 22:36:08;;;;;;;7.75;0.88;;;;;;;;;;20834489;28;20574;-63
2023/04/14 22:46:10;;;;;;;4.32;1.40;;;;;;;;;;20833213;28;20046;-63
2023/04/14 22:56:11;;;;;;;7.28;3.03;;;;;;;;;;20832379;28;20072;-62
2023/04/14 23:06:13;;;;;;;2.78;1.10;;;;;;;;;;20831996;28;20132;-64
2023/04/14 23:16:18;;;;;;;17.55;8.93;;;;;;;;;;20830967;28;20124;-64
2023/04/14 23:26:21;;;;;;;7.45;2.83;;;;;;;;;;20830033;28;20049;-63
2023/04/14 23:36:23;;;;;;;5.05;1.35;;;;;;;;;;20831339;28;20041;-64
2023/04/14 23:46:25;;;;;;;3.88;0.85;;;;;;;;;;20829302;28;20049;-64
2023/04/14 23:56:27;;;;;;;4.88;0.80;;;;;;;;;;20828790;28;20049;-63
